sensor_id;sensor_type;location;lat;lon;timestamp;pressure;altitude;pressure_sealevel;temperature;humidity
13690;BME280;6917;52.194;9.894;2023-01-15T00:00:04;98407.59;;;9.44;100.00
13690;BME280;6917;52.194;9.894;2023-01-15T00:02:30;98410.81;;;9.49;100.00
13690;BME280;6917;52.194;9.894;2023-01-15T00:04:56;98403.78;;;9.48;100.00
13690;BME280;6917;52.194;9.894;2023-01-15T00:07:21;98407.25;;;9.45;100.00
13690;BME280;6917;52.194;9.894;2023-01-15T00:09:46;98425.53;;;9.45;100.00
13690;BME280;6917;52.194;9.894;2023-01-15T00:12:12;98446.09;;;9.42;100.00
13690;BME280;6917;52.194;9.894;2023-01-15T00:14:37;98448.28;;;9.37;100.00
13690;BME280;6917;52.194;9.894;2023-01-15T00:17:02;98440.38;;;9.32;100.00
13690;BME280;6917;52.194;9.894;2023-01-15T00:19:27;98432.03;;;9.24;100.00
13690;BME280;6917;52.194;9.894;2023-01-15T00:21:53;98431.06;;;9.17;100.00
13690;BME280;6917;52.194;9.894;2023-01-15T00:24:18;98446.00;;;9.07;100.00
13690;BME280;6917;52.194;9.894;2023-01-15T00:27:02;98449.25;;;8.97;100.00
13690;BME280;6917;52.194;9.894;2023-01-15T00:29:46;98448.25;;;8.74;100.00
13690;BME280;6917;52.194;9.894;2023-01-15T00:32:11;98467.09;;;8.26;100.00
13690;BME280;6917;52.194;9.894;2023-01-15T00:34:37;98460.69;;;7.94;100.00
13690;BME280;6917;52.194;9.894;2023-01-15T00:37:02;98464.94;;;7.67;100.00
13690;BME280;6917;52.194;9.894;2023-01-15T00:39:27;98475.56;;;7.48;100.00
13690;BME280;6917;52.194;9.894;2023-01-15T00:41:54;98488.47;;;7.39;100.00
13690;BME280;6917;52.194;9.894;2023-01-15T00:44:20;98487.78;;;7.30;100.00
13690;BME280;6917;52.194;9.894;2023-01-15T00:46:46;98479.38;;;7.10;100.00
13690;BME280;6917;52.194;9.894;2023-01-15T00:49:11;98505.03;;;7.01;100.00
13690;BME280;6917;52.194;9.894;2023-01-15T00:51:37;98502.19;;;6.64;100.00
13690;BME280;6917;52.194;9.894;2023-01-15T00:54:02;98506.63;;;6.48;100.00
13690;BME280;6917;52.194;9.894;2023-01-15T00:56:28;98517.09;;;6.37;100.00
13690;BME280;6917;52.194;9.894;2023-01-15T00:58:53;98521.78;;;6.28;100.00
13690;BME280;6917;52.194;9.894;2023-01-15T01:01:19;98538.72;;;6.25;100.00
13690;BME280;6917;52.194;9.894;2023-01-15T01:03:44;98538.44;;;6.18;100.00
13690;BME280;6917;52.194;9.894;2023-01-15T01:06:14;98563.38;;;6.11;100.00
13690;BME280;6917;52.194;9.894;2023-01-15T01:08:40;98561.31;;;6.08;100.00
13690;BME280;6917;52.194;9.894;2023-01-15T01:11:09;98568.66;;;6.08;100.00
13690;BME280;6917;52.194;9.894;2023-01-15T01:13:36;98559.91;;;6.02;100.00
13690;BME280;6917;52.194;9.894;2023-01-15T01:16:02;98581.91;;;6.01;100.00
13690;BME280;6917;52.194;9.894;2023-01-15T01:18:28;98594.53;;;5.96;100.00
13690;BME280;6917;52.194;9.894;2023-01-15T01:20:53;98596.78;;;5.94;100.00
13690;BME280;6917;52.194;9.894;2023-01-15T01:23:20;98589.28;;;5.91;100.00
13690;BME280;6917;52.194;9.894;2023-01-15T01:25:46;98599.03;;;5.84;100.00
13690;BME280;6917;52.194;9.894;2023-01-15T01:28:11;98613.22;;;5.81;100.00
13690;BME280;6917;52.194;9.894;2023-01-15T01:30:37;98616.56;;;5.78;100.00
13690;BME280;6917;52.194;9.894;2023-01-15T01:33:02;98619.94;;;5.75;100.00
13690;BME280;6917;52.194;9.894;2023-01-15T01:35:28;98638.28;;;5.69;100.00
13690;BME280;6917;52.194;9.894;2023-01-15T01:37:53;98641.81;;;5.61;100.00
13690;BME280;6917;52.194;9.894;2023-01-15T01:40:18;98645.34;;;5.53;100.00
13690;BME280;6917;52.194;9.894;2023-01-15T01:42:44;98638.03;;;5.45;100.00
13690;BME280;6917;52.194;9.894;2023-01-15T01:45:21;98644.25;;;5.36;100.00
13690;BME280;6917;52.194;9.894;2023-01-15T01:47:50;98665.59;;;5.29;100.00
13690;BME280;6917;52.194;9.894;2023-01-15T01:50:19;98657.34;;;5.26;100.00
13690;BME280;6917;52.194;9.894;2023-01-15T01:52:54;98668.00;;;5.22;100.00
13690;BME280;6917;52.194;9.894;2023-01-15T01:55:22;98664.66;;;5.17;100.00
13690;BME280;6917;52.194;9.894;2023-01-15T01:57:50;98650.97;;;5.04;100.00
13690;BME280;6917;52.194;9.894;2023-01-15T02:00:17;98650.19;;;4.95;100.00
13690;BME280;6917;52.194;9.894;2023-01-15T02:02:45;98647.94;;;4.89;100.00
13690;BME280;6917;52.194;9.894;2023-01-15T02:05:22;98664.34;;;4.84;100.00
13690;BME280;6917;52.194;9.894;2023-01-15T02:07:50;98644.59;;;4.74;100.00
13690;BME280;6917;52.194;9.894;2023-01-15T02:10:15;98660.97;;;4.69;100.00
13690;BME280;6917;52.194;9.894;2023-01-15T02:12:45;98657.00;;;4.67;100.00
13690;BME280;6917;52.194;9.894;2023-01-15T02:15:17;98663.66;;;4.61;100.00
13690;BME280;6917;52.194;9.894;2023-01-15T02:17:59;98658.09;;;4.57;100.00
13690;BME280;6917;52.194;9.894;2023-01-15T02:20:36;98663.50;;;4.57;100.00
13690;BME280;6917;52.194;9.894;2023-01-15T02:23:13;98676.53;;;4.55;100.00
13690;BME280;6917;52.194;9.894;2023-01-15T02:25:57;98667.94;;;4.53;100.00
13690;BME280;6917;52.194;9.894;2023-01-15T02:28:44;98678.28;;;4.51;100.00
13690;BME280;6917;52.194;9.894;2023-01-15T02:31:28;98697.53;;;4.50;100.00
13690;BME280;6917;52.194;9.894;2023-01-15T02:34:02;98684.63;;;4.46;100.00
13690;BME280;6917;52.194;9.894;2023-01-15T02:36:32;98666.00;;;4.45;100.00
13690;BME280;6917;52.194;9.894;2023-01-15T02:39:03;98696.06;;;4.43;100.00
13690;BME280;6917;52.194;9.894;2023-01-15T02:41:33;98686.69;;;4.41;100.00
13690;BME280;6917;52.194;9.894;2023-01-15T02:44:02;98687.78;;;4.40;100.00
13690;BME280;6917;52.194;9.894;2023-01-15T02:46:33;98684.63;;;4.38;100.00
13690;BME280;6917;52.194;9.894;2023-01-15T02:48:59;98668.53;;;4.33;100.00
13690;BME280;6917;52.194;9.894;2023-01-15T02:51:31;98668.03;;;4.31;100.00
13690;BME280;6917;52.194;9.894;2023-01-15T02:54:00;98673.63;;;4.34;100.00
13690;BME280;6917;52.194;9.894;2023-01-15T02:56:31;98645.78;;;4.34;100.00
13690;BME280;6917;52.194;9.894;2023-01-15T02:59:04;98644.69;;;4.35;100.00
13690;BME280;6917;52.194;9.894;2023-01-15T03:01:35;98657.91;;;4.36;100.00
13690;BME280;6917;52.194;9.894;2023-01-15T03:04:06;98649.47;;;4.38;100.00
13690;BME280;6917;52.194;9.894;2023-01-15T03:06:42;98641.03;;;4.39;100.00
13690;BME280;6917;52.194;9.894;2023-01-15T03:09:08;98632.63;;;4.41;100.00
13690;BME280;6917;52.194;9.894;2023-01-15T03:11:37;98641.03;;;4.39;100.00
13690;BME280;6917;52.194;9.894;2023-01-15T03:14:09;98643.25;;;4.37;100.00
13690;BME280;6917;52.194;9.894;2023-01-15T03:16:48;98632.28;;;4.42;100.00
13690;BME280;6917;52.194;9.894;2023-01-15T03:19:29;98647.56;;;4.47;100.00
13690;BME280;6917;52.194;9.894;2023-01-15T03:22:17;98636.75;;;4.47;100.00
13690;BME280;6917;52.194;9.894;2023-01-15T03:24:46;98639.78;;;4.45;100.00
13690;BME280;6917;52.194;9.894;2023-01-15T03:27:13;98635.78;;;4.43;100.00
13690;BME280;6917;52.194;9.894;2023-01-15T03:29:45;98624.97;;;4.43;100.00
13690;BME280;6917;52.194;9.894;2023-01-15T03:32:11;98627.69;;;4.43;100.00
13690;BME280;6917;52.194;9.894;2023-01-15T03:34:41;98623.88;;;4.44;100.00
13690;BME280;6917;52.194;9.894;2023-01-15T03:37:07;98610.34;;;4.44;100.00
13690;BME280;6917;52.194;9.894;2023-01-15T03:39:33;98598.91;;;4.47;100.00
13690;BME280;6917;52.194;9.894;2023-01-15T03:42:09;98599.88;;;4.51;100.00
13690;BME280;6917;52.194;9.894;2023-01-15T03:48:00;98621.03;;;4.58;100.00
13690;BME280;6917;52.194;9.894;2023-01-15T03:56:09;98601.47;;;4.69;100.00
13690;BME280;6917;52.194;9.894;2023-01-15T03:59:09;98603.06;;;4.70;100.00
13690;BME280;6917;52.194;9.894;2023-01-15T04:01:38;98599.72;;;4.73;100.00
13690;BME280;6917;52.194;9.894;2023-01-15T04:04:06;98602.88;;;4.75;100.00
13690;BME280;6917;52.194;9.894;2023-01-15T04:06:34;98595.28;;;4.77;100.00
13690;BME280;6917;52.194;9.894;2023-01-15T04:09:02;98601.31;;;4.83;100.00
13690;BME280;6917;52.194;9.894;2023-01-15T04:11:28;98603.69;;;4.85;100.00
13690;BME280;6917;52.194;9.894;2023-01-15T04:13:54;98603.06;;;4.88;100.00
13690;BME280;6917;52.194;9.894;2023-01-15T04:16:30;98605.44;;;4.89;100.00
13690;BME280;6917;52.194;9.894;2023-01-15T04:18:56;98582.34;;;4.92;100.00
13690;BME280;6917;52.194;9.894;2023-01-15T04:21:21;98585.69;;;4.89;100.00
13690;BME280;6917;52.194;9.894;2023-01-15T04:23:47;98593.69;;;4.94;100.00
13690;BME280;6917;52.194;9.894;2023-01-15T04:26:12;98597.78;;;5.00;98.13
13690;BME280;6917;52.194;9.894;2023-01-15T04:28:38;98593.81;;;4.97;98.72
13690;BME280;6917;52.194;9.894;2023-01-15T04:31:03;98580.28;;;4.97;97.93
13690;BME280;6917;52.194;9.894;2023-01-15T04:33:29;98583.00;;;4.97;98.41
13690;BME280;6917;52.194;9.894;2023-01-15T04:35:57;98585.38;;;4.99;98.27
13690;BME280;6917;52.194;9.894;2023-01-15T04:38:22;98566.44;;;4.99;97.98
13690;BME280;6917;52.194;9.894;2023-01-15T04:40:48;98572.00;;;5.02;97.63
13690;BME280;6917;52.194;9.894;2023-01-15T04:43:32;98564.22;;;5.01;97.48
13690;BME280;6917;52.194;9.894;2023-01-15T04:46:20;98549.88;;;5.00;97.51
13690;BME280;6917;52.194;9.894;2023-01-15T04:48:45;98551.94;;;5.03;97.61
13690;BME280;6917;52.194;9.894;2023-01-15T04:51:10;98574.72;;;5.02;97.34
13690;BME280;6917;52.194;9.894;2023-01-15T04:53:36;98564.53;;;5.08;96.99
13690;BME280;6917;52.194;9.894;2023-01-15T04:56:04;98577.41;;;5.11;96.35
13690;BME280;6917;52.194;9.894;2023-01-15T04:58:30;98582.81;;;5.11;96.17
13690;BME280;6917;52.194;9.894;2023-01-15T05:00:56;98570.38;;;5.19;95.18
13690;BME280;6917;52.194;9.894;2023-01-15T05:03:22;98573.09;;;5.19;95.50
13690;BME280;6917;52.194;9.894;2023-01-15T05:05:47;98561.63;;;5.22;95.04
13690;BME280;6917;52.194;9.894;2023-01-15T05:08:14;98567.34;;;5.20;95.36
13690;BME280;6917;52.194;9.894;2023-01-15T05:10:40;98561.13;;;5.20;94.81
13690;BME280;6917;52.194;9.894;2023-01-15T05:13:05;98580.25;;;5.23;94.78
13690;BME280;6917;52.194;9.894;2023-01-15T05:15:30;98583.91;;;5.27;94.00
13690;BME280;6917;52.194;9.894;2023-01-15T05:17:55;98587.88;;;5.30;93.43
13690;BME280;6917;52.194;9.894;2023-01-15T05:20:21;98591.06;;;5.32;93.22
13690;BME280;6917;52.194;9.894;2023-01-15T05:22:46;98585.81;;;5.35;92.58
13690;BME280;6917;52.194;9.894;2023-01-15T05:25:11;98578.78;;;5.34;92.28
13690;BME280;6917;52.194;9.894;2023-01-15T05:27:37;98565.09;;;5.40;91.80
13690;BME280;6917;52.194;9.894;2023-01-15T05:30:02;98557.44;;;5.42;90.91
13690;BME280;6917;52.194;9.894;2023-01-15T05:32:29;98583.84;;;5.45;91.00
13690;BME280;6917;52.194;9.894;2023-01-15T05:34:54;98586.75;;;5.40;91.71
13690;BME280;6917;52.194;9.894;2023-01-15T05:37:19;98587.53;;;5.40;91.51
13690;BME280;6917;52.194;9.894;2023-01-15T05:39:45;98583.84;;;5.45;91.08
13690;BME280;6917;52.194;9.894;2023-01-15T05:42:10;98588.47;;;5.44;90.96
13690;BME280;6917;52.194;9.894;2023-01-15T05:44:35;98587.22;;;5.42;91.47
13690;BME280;6917;52.194;9.894;2023-01-15T05:47:01;98578.16;;;5.37;91.77
13690;BME280;6917;52.194;9.894;2023-01-15T05:49:28;98584.38;;;5.38;92.06
13690;BME280;6917;52.194;9.894;2023-01-15T05:51:55;98579.41;;;5.40;92.26
13690;BME280;6917;52.194;9.894;2023-01-15T05:54:26;98597.13;;;5.37;92.52
13690;BME280;6917;52.194;9.894;2023-01-15T05:56:52;98587.88;;;5.38;92.68
13690;BME280;6917;52.194;9.894;2023-01-15T05:59:21;98587.88;;;5.38;92.52
13690;BME280;6917;52.194;9.894;2023-01-15T06:01:47;98580.88;;;5.37;92.49
13690;BME280;6917;52.194;9.894;2023-01-15T06:04:13;98582.94;;;5.41;92.26
13690;BME280;6917;52.194;9.894;2023-01-15T06:06:39;98589.78;;;5.38;93.14
13690;BME280;6917;52.194;9.894;2023-01-15T06:09:05;98591.22;;;5.35;93.62
13690;BME280;6917;52.194;9.894;2023-01-15T06:11:31;98589.47;;;5.40;93.06
13690;BME280;6917;52.194;9.894;2023-01-15T06:13:56;98597.91;;;5.38;93.30
13690;BME280;6917;52.194;9.894;2023-01-15T06:16:22;98610.47;;;5.43;93.09
13690;BME280;6917;52.194;9.894;2023-01-15T06:18:47;98605.72;;;5.40;93.16
13690;BME280;6917;52.194;9.894;2023-01-15T06:21:13;98614.63;;;5.40;92.89
13690;BME280;6917;52.194;9.894;2023-01-15T06:23:39;98593.44;;;5.42;92.91
13690;BME280;6917;52.194;9.894;2023-01-15T06:26:09;98602.66;;;5.41;92.93
13690;BME280;6917;52.194;9.894;2023-01-15T06:28:34;98620.38;;;5.38;93.15
13690;BME280;6917;52.194;9.894;2023-01-15T06:31:04;98617.00;;;5.42;92.77
13690;BME280;6917;52.194;9.894;2023-01-15T06:33:30;98622.75;;;5.40;92.89
13690;BME280;6917;52.194;9.894;2023-01-15T06:35:55;98624.94;;;5.47;92.42
13690;BME280;6917;52.194;9.894;2023-01-15T06:38:20;98620.19;;;5.44;92.39
13690;BME280;6917;52.194;9.894;2023-01-15T06:40:45;98621.13;;;5.48;92.17
13690;BME280;6917;52.194;9.894;2023-01-15T06:43:11;98625.28;;;5.54;91.23
13690;BME280;6917;52.194;9.894;2023-01-15T06:45:55;98628.44;;;5.56;91.02
13690;BME280;6917;52.194;9.894;2023-01-15T06:48:49;98624.94;;;5.55;90.73
13690;BME280;6917;52.194;9.894;2023-01-15T06:51:15;98633.38;;;5.54;91.27
13690;BME280;6917;52.194;9.894;2023-01-15T06:53:43;98632.75;;;5.57;90.62
13690;BME280;6917;52.194;9.894;2023-01-15T06:56:09;98616.50;;;5.57;90.92
13690;BME280;6917;52.194;9.894;2023-01-15T06:58:34;98620.31;;;5.56;91.39
13690;BME280;6917;52.194;9.894;2023-01-15T07:00:59;98619.34;;;5.60;91.10
13690;BME280;6917;52.194;9.894;2023-01-15T07:03:24;98622.19;;;5.64;90.48
13690;BME280;6917;52.194;9.894;2023-01-15T07:05:50;98622.19;;;5.64;90.60
13690;BME280;6917;52.194;9.894;2023-01-15T07:08:15;98626.81;;;5.63;90.70
13690;BME280;6917;52.194;9.894;2023-01-15T07:10:40;98614.56;;;5.66;90.32
13690;BME280;6917;52.194;9.894;2023-01-15T07:13:08;98619.47;;;5.64;90.84
13690;BME280;6917;52.194;9.894;2023-01-15T07:15:34;98622.19;;;5.64;90.51
13690;BME280;6917;52.194;9.894;2023-01-15T07:17:59;98628.72;;;5.63;90.81
13690;BME280;6917;52.194;9.894;2023-01-15T07:20:24;98634.66;;;5.65;90.46
13690;BME280;6917;52.194;9.894;2023-01-15T07:22:50;98633.34;;;5.62;90.16
13690;BME280;6917;52.194;9.894;2023-01-15T07:25:16;98604.84;;;5.65;89.18
13690;BME280;6917;52.194;9.894;2023-01-15T07:27:42;98619.66;;;5.67;88.95
13690;BME280;6917;52.194;9.894;2023-01-15T07:30:08;98622.19;;;5.64;88.67
13690;BME280;6917;52.194;9.894;2023-01-15T07:32:33;98615.84;;;5.60;89.13
13690;BME280;6917;52.194;9.894;2023-01-15T07:34:59;98619.19;;;5.57;89.35
13690;BME280;6917;52.194;9.894;2023-01-15T07:37:24;98628.59;;;5.59;89.46
13690;BME280;6917;52.194;9.894;2023-01-15T07:39:49;98644.03;;;5.59;89.61
13690;BME280;6917;52.194;9.894;2023-01-15T07:42:14;98620.31;;;5.56;89.92
13690;BME280;6917;52.194;9.894;2023-01-15T07:44:59;98620.66;;;5.54;90.03
13690;BME280;6917;52.194;9.894;2023-01-15T07:47:42;98638.16;;;5.57;90.07
13690;BME280;6917;52.194;9.894;2023-01-15T07:50:26;98619.53;;;5.55;89.94
13690;BME280;6917;52.194;9.894;2023-01-15T07:52:52;98634.97;;;5.55;90.02
13690;BME280;6917;52.194;9.894;2023-01-15T07:55:17;98624.16;;;5.55;90.04
13690;BME280;6917;52.194;9.894;2023-01-15T07:57:43;98630.34;;;5.55;89.97
13690;BME280;6917;52.194;9.894;2023-01-15T08:00:11;98626.84;;;5.55;90.03
13690;BME280;6917;52.194;9.894;2023-01-15T08:02:37;98630.03;;;5.57;89.45
13690;BME280;6917;52.194;9.894;2023-01-15T08:05:02;98630.81;;;5.57;89.19
13690;BME280;6917;52.194;9.894;2023-01-15T08:07:28;98622.03;;;5.60;88.98
13690;BME280;6917;52.194;9.894;2023-01-15T08:09:53;98616.16;;;5.58;88.67
13690;BME280;6917;52.194;9.894;2023-01-15T08:12:18;98628.25;;;5.61;88.08
13690;BME280;6917;52.194;9.894;2023-01-15T08:15:02;98625.56;;;5.61;88.15
13690;BME280;6917;52.194;9.894;2023-01-15T08:17:43;98625.56;;;5.61;87.82
13690;BME280;6917;52.194;9.894;2023-01-15T08:20:14;98629.84;;;5.62;87.40
13690;BME280;6917;52.194;9.894;2023-01-15T08:22:40;98624.91;;;5.64;87.38
13690;BME280;6917;52.194;9.894;2023-01-15T08:25:08;98628.09;;;5.66;86.84
13690;BME280;6917;52.194;9.894;2023-01-15T08:27:35;98631.59;;;5.66;87.02
13690;BME280;6917;52.194;9.894;2023-01-15T08:30:01;98645.94;;;5.67;86.99
13690;BME280;6917;52.194;9.894;2023-01-15T08:32:26;98636.06;;;5.71;86.61
13690;BME280;6917;52.194;9.894;2023-01-15T08:34:51;98645.75;;;5.72;86.21
13690;BME280;6917;52.194;9.894;2023-01-15T08:37:17;98620.91;;;5.70;86.40
13690;BME280;6917;52.194;9.894;2023-01-15T08:39:42;98627.72;;;5.76;85.81
13690;BME280;6917;52.194;9.894;2023-01-15T08:42:08;98639.22;;;5.73;85.75
13690;BME280;6917;52.194;9.894;2023-01-15T08:44:33;98633.00;;;5.73;85.33
13690;BME280;6917;52.194;9.894;2023-01-15T08:46:58;98625.88;;;5.68;85.53
13690;BME280;6917;52.194;9.894;2023-01-15T08:49:24;98633.03;;;5.64;85.79
13690;BME280;6917;52.194;9.894;2023-01-15T08:51:49;98630.03;;;5.57;86.14
13690;BME280;6917;52.194;9.894;2023-01-15T08:54:17;98632.44;;;5.50;86.16
13690;BME280;6917;52.194;9.894;2023-01-15T08:56:43;98638.03;;;5.45;86.87
13690;BME280;6917;52.194;9.894;2023-01-15T08:59:09;98627.50;;;5.43;87.31
13690;BME280;6917;52.194;9.894;2023-01-15T09:01:34;98632.59;;;5.45;86.82
13690;BME280;6917;52.194;9.894;2023-01-15T09:04:00;98629.09;;;5.44;86.87
13690;BME280;6917;52.194;9.894;2023-01-15T09:06:25;98627.19;;;5.45;86.66
13690;BME280;6917;52.194;9.894;2023-01-15T09:08:51;98632.13;;;5.43;87.27
13690;BME280;6917;52.194;9.894;2023-01-15T09:11:16;98625.13;;;5.42;87.02
13690;BME280;6917;52.194;9.894;2023-01-15T09:13:41;98620.19;;;5.44;86.39
13690;BME280;6917;52.194;9.894;2023-01-15T09:16:07;98640.25;;;5.43;86.70
13690;BME280;6917;52.194;9.894;2023-01-15T09:18:35;98630.22;;;5.43;86.42
13690;BME280;6917;52.194;9.894;2023-01-15T09:21:01;98643.13;;;5.46;86.17
13690;BME280;6917;52.194;9.894;2023-01-15T09:23:26;98645.16;;;5.49;85.96
13690;BME280;6917;52.194;9.894;2023-01-15T09:25:56;98651.41;;;5.50;85.62
13690;BME280;6917;52.194;9.894;2023-01-15T09:28:22;98657.91;;;5.49;85.58
13690;BME280;6917;52.194;9.894;2023-01-15T09:30:48;98643.75;;;5.52;85.29
13690;BME280;6917;52.194;9.894;2023-01-15T09:33:13;98651.22;;;5.55;85.64
13690;BME280;6917;52.194;9.894;2023-01-15T09:35:39;98657.91;;;5.57;85.19
13690;BME280;6917;52.194;9.894;2023-01-15T09:38:04;98652.63;;;5.61;84.68
13690;BME280;6917;52.194;9.894;2023-01-15T09:40:54;98652.50;;;5.66;84.30
13690;BME280;6917;52.194;9.894;2023-01-15T09:43:43;98659.97;;;5.69;83.95
13690;BME280;6917;52.194;9.894;2023-01-15T09:46:16;98641.31;;;5.67;84.18
13690;BME280;6917;52.194;9.894;2023-01-15T09:54:23;98637.88;;;5.41;80.13
13690;BME280;6917;52.194;9.894;2023-01-15T09:56:54;98618.63;;;5.25;80.06
13690;BME280;6917;52.194;9.894;2023-01-15T09:59:31;98634.91;;;5.08;81.22
13690;BME280;6917;52.194;9.894;2023-01-15T10:01:59;98672.63;;;4.96;83.11
13690;BME280;6917;52.194;9.894;2023-01-15T10:04:36;98677.03;;;4.74;85.47
13690;BME280;6917;52.194;9.894;2023-01-15T10:07:12;98674.47;;;4.61;87.05
13690;BME280;6917;52.194;9.894;2023-01-15T10:09:42;98686.53;;;4.46;88.71
13690;BME280;6917;52.194;9.894;2023-01-15T10:12:19;98683.66;;;4.42;89.96
13690;BME280;6917;52.194;9.894;2023-01-15T10:15:09;98667.41;;;4.34;90.82
13690;BME280;6917;52.194;9.894;2023-01-15T10:17:49;98658.81;;;4.23;92.12
13690;BME280;6917;52.194;9.894;2023-01-15T10:31:36;98666.94;;;4.32;94.90
13690;BME280;6917;52.194;9.894;2023-01-15T10:37:04;98659.69;;;4.50;94.78
13690;BME280;6917;52.194;9.894;2023-01-15T10:45:29;98669.41;;;4.76;91.87
13690;BME280;6917;52.194;9.894;2023-01-15T10:50:33;98669.56;;;4.89;90.46
13690;BME280;6917;52.194;9.894;2023-01-15T10:53:13;98656.06;;;4.97;89.35
13690;BME280;6917;52.194;9.894;2023-01-15T10:55:45;98653.97;;;5.03;88.60
13690;BME280;6917;52.194;9.894;2023-01-15T10:58:34;98638.41;;;5.08;87.54
13690;BME280;6917;52.194;9.894;2023-01-15T11:01:22;98633.31;;;5.07;87.07
13690;BME280;6917;52.194;9.894;2023-01-15T11:03:51;98615.47;;;5.15;86.22
13690;BME280;6917;52.194;9.894;2023-01-15T11:06:21;98624.84;;;5.26;85.42
13690;BME280;6917;52.194;9.894;2023-01-15T11:08:50;98619.56;;;5.38;84.80
13690;BME280;6917;52.194;9.894;2023-01-15T11:11:43;98619.38;;;5.52;83.94
13690;BME280;6917;52.194;9.894;2023-01-15T11:14:38;98619.00;;;5.62;82.90
13690;BME280;6917;52.194;9.894;2023-01-15T11:17:26;98609.75;;;5.72;82.42
13690;BME280;6917;52.194;9.894;2023-01-15T11:20:30;98600.16;;;5.83;81.17
13690;BME280;6917;52.194;9.894;2023-01-15T11:22:57;98610.19;;;5.91;80.89
13690;BME280;6917;52.194;9.894;2023-01-15T11:25:31;98612.09;;;5.90;80.26
13690;BME280;6917;52.194;9.894;2023-01-15T11:28:04;98607.63;;;5.94;79.62
13690;BME280;6917;52.194;9.894;2023-01-15T11:30:32;98608.75;;;5.93;79.92
13690;BME280;6917;52.194;9.894;2023-01-15T11:33:00;98607.75;;;5.98;79.53
13690;BME280;6917;52.194;9.894;2023-01-15T11:35:28;98601.22;;;5.99;79.08
13690;BME280;6917;52.194;9.894;2023-01-15T11:38:04;98610.28;;;6.03;78.45
13690;BME280;6917;52.194;9.894;2023-01-15T11:40:30;98611.84;;;6.13;78.23
13690;BME280;6917;52.194;9.894;2023-01-15T11:42:55;98614.34;;;6.18;76.91
13690;BME280;6917;52.194;9.894;2023-01-15T11:45:50;98620.06;;;6.25;76.60
13690;BME280;6917;52.194;9.894;2023-01-15T11:48:46;98604.44;;;6.22;75.59
13690;BME280;6917;52.194;9.894;2023-01-15T11:51:40;98615.22;;;6.10;74.84
13690;BME280;6917;52.194;9.894;2023-01-15T11:54:11;98626.19;;;6.13;75.51
13690;BME280;6917;52.194;9.894;2023-01-15T11:56:41;98610.84;;;6.17;75.48
13690;BME280;6917;52.194;9.894;2023-01-15T11:59:15;98628.38;;;6.20;74.42
13690;BME280;6917;52.194;9.894;2023-01-15T12:01:52;98622.91;;;6.29;73.98
13690;BME280;6917;52.194;9.894;2023-01-15T12:04:33;98621.94;;;6.33;73.13
13690;BME280;6917;52.194;9.894;2023-01-15T12:07:01;98588.59;;;6.33;73.49
13690;BME280;6917;52.194;9.894;2023-01-15T12:09:52;98615.72;;;6.33;73.11
13690;BME280;6917;52.194;9.894;2023-01-15T12:26:28;98622.78;;;6.25;71.51
13690;BME280;6917;52.194;9.894;2023-01-15T12:31:49;98610.06;;;6.17;71.16
13690;BME280;6917;52.194;9.894;2023-01-15T12:34:21;98621.56;;;6.14;72.57
13690;BME280;6917;52.194;9.894;2023-01-15T12:36:56;98616.13;;;6.14;71.62
13690;BME280;6917;52.194;9.894;2023-01-15T12:39:29;98616.94;;;6.14;71.60
13690;BME280;6917;52.194;9.894;2023-01-15T12:42:16;98626.97;;;6.14;71.89
13690;BME280;6917;52.194;9.894;2023-01-15T12:45:06;98609.59;;;6.15;70.63
13690;BME280;6917;52.194;9.894;2023-01-15T12:47:44;98609.59;;;6.15;71.08
13690;BME280;6917;52.194;9.894;2023-01-15T12:55:43;98592.00;;;6.21;70.08
13690;BME280;6917;52.194;9.894;2023-01-15T12:58:22;98598.38;;;6.25;69.75
13690;BME280;6917;52.194;9.894;2023-01-15T13:06:34;98578.06;;;6.31;70.16
13690;BME280;6917;52.194;9.894;2023-01-15T13:09:13;98576.63;;;6.34;69.21
13690;BME280;6917;52.194;9.894;2023-01-15T13:11:42;98582.31;;;6.41;69.43
13690;BME280;6917;52.194;9.894;2023-01-15T13:14:14;98579.88;;;6.48;70.03
13690;BME280;6917;52.194;9.894;2023-01-15T13:16:43;98578.69;;;6.57;69.82
13690;BME280;6917;52.194;9.894;2023-01-15T13:19:22;98579.81;;;6.56;69.05
13690;BME280;6917;52.194;9.894;2023-01-15T13:21:54;98577.63;;;6.50;69.84
13690;BME280;6917;52.194;9.894;2023-01-15T13:32:44;98585.84;;;6.41;70.07
13690;BME280;6917;52.194;9.894;2023-01-15T13:37:46;98607.31;;;6.46;69.43
13690;BME280;6917;52.194;9.894;2023-01-15T13:42:47;98600.97;;;6.42;69.81
13690;BME280;6917;52.194;9.894;2023-01-15T13:50:35;98605.63;;;6.42;69.98
13690;BME280;6917;52.194;9.894;2023-01-15T13:53:08;98583.59;;;6.43;70.68
13690;BME280;6917;52.194;9.894;2023-01-15T13:55:41;98603.22;;;6.40;70.35
13690;BME280;6917;52.194;9.894;2023-01-15T13:58:21;98596.84;;;6.36;71.17
13690;BME280;6917;52.194;9.894;2023-01-15T14:00:47;98594.69;;;6.30;70.93
13690;BME280;6917;52.194;9.894;2023-01-15T14:03:30;98596.59;;;6.29;71.17
13690;BME280;6917;52.194;9.894;2023-01-15T14:06:02;98595.66;;;6.25;71.74
13690;BME280;6917;52.194;9.894;2023-01-15T14:08:40;98604.28;;;6.27;71.24
13690;BME280;6917;52.194;9.894;2023-01-15T14:14:11;98578.53;;;6.33;70.25
13690;BME280;6917;52.194;9.894;2023-01-15T14:25:13;98595.88;;;6.41;70.42
13690;BME280;6917;52.194;9.894;2023-01-15T14:35:54;98612.09;;;6.49;69.64
13690;BME280;6917;52.194;9.894;2023-01-15T14:38:23;98615.78;;;6.45;70.08
13690;BME280;6917;52.194;9.894;2023-01-15T14:40:58;98621.88;;;6.42;70.27
13690;BME280;6917;52.194;9.894;2023-01-15T14:43:26;98607.19;;;6.43;69.71
13690;BME280;6917;52.194;9.894;2023-01-15T14:45:52;98621.09;;;6.41;69.65
13690;BME280;6917;52.194;9.894;2023-01-15T14:50:53;98641.88;;;6.37;69.72
13690;BME280;6917;52.194;9.894;2023-01-15T14:53:27;98624.94;;;6.40;69.09
13690;BME280;6917;52.194;9.894;2023-01-15T14:56:17;98629.69;;;6.43;68.89
13690;BME280;6917;52.194;9.894;2023-01-15T14:58:48;98621.75;;;6.38;69.55
13690;BME280;6917;52.194;9.894;2023-01-15T15:01:29;98631.47;;;6.39;69.30
13690;BME280;6917;52.194;9.894;2023-01-15T15:04:02;98647.28;;;6.37;69.73
13690;BME280;6917;52.194;9.894;2023-01-15T15:06:31;98639.78;;;6.34;69.79
13690;BME280;6917;52.194;9.894;2023-01-15T15:09:02;98641.69;;;6.34;70.47
13690;BME280;6917;52.194;9.894;2023-01-15T15:11:38;98650.97;;;6.33;70.72
13690;BME280;6917;52.194;9.894;2023-01-15T15:14:25;98616.03;;;6.31;70.77
13690;BME280;6917;52.194;9.894;2023-01-15T15:16:52;98656.06;;;6.34;70.79
13690;BME280;6917;52.194;9.894;2023-01-15T15:19:34;98684.31;;;6.33;70.57